createdAt,value
2023-05-08T00:03:31.893Z,101730.88
2023-05-08T00:08:36.064Z,101727.34
2023-05-08T00:13:40.113Z,101710.41
2023-05-08T00:18:42.748Z,101724.25
2023-05-08T00:23:46.818Z,101726.84
2023-05-08T00:28:49.472Z,101710.63
2023-05-08T00:33:52.107Z,101661.53
2023-05-08T00:38:56.208Z,101719.56
2023-05-08T00:43:58.959Z,101723.53
2023-05-08T00:49:01.751Z,101730.94
2023-05-08T00:54:06.070Z,101730.09
2023-05-08T00:59:12.555Z,101706.66
2023-05-08T01:04:15.885Z,101718.38
2023-05-08T01:09:19.955Z,101719.34
2023-05-08T01:14:33.105Z,101731.72
2023-05-08T01:20:03.966Z,101721.59
2023-05-08T01:25:40.285Z,101731.25
2023-05-08T01:31:00.619Z,101732.41
2023-05-08T01:36:16.296Z,101729.34
2023-05-08T01:41:26.644Z,101728.38
2023-05-08T01:46:33.700Z,101728.16
2023-05-08T01:51:42.552Z,101707.06
2023-05-08T01:56:48.643Z,101726.91
2023-05-08T02:01:54.989Z,101745.47
2023-05-08T02:07:00.588Z,101744.28
2023-05-08T02:12:04.592Z,101748.16
2023-05-08T02:17:10.660Z,101757.22
2023-05-08T02:22:17.723Z,101756.25
2023-05-08T02:27:23.001Z,101756.91
2023-05-08T02:32:26.831Z,101756.56
2023-05-08T02:37:32.879Z,101749.22
2023-05-08T02:42:35.915Z,101746.25
2023-05-08T02:47:44.496Z,101753.06
2023-05-08T02:52:50.641Z,101755.84
2023-05-08T02:58:03.949Z,101752.84
2023-05-08T03:03:12.959Z,101749.13
2023-05-08T03:08:21.605Z,101741.84
2023-05-08T03:13:26.179Z,101730.03
2023-05-08T03:18:35.741Z,101749.97
2023-05-08T03:23:43.484Z,101746.03
2023-05-08T03:28:48.784Z,101751.13
2023-05-08T03:33:55.371Z,101749.41
2023-05-08T03:39:00.723Z,101749.59
2023-05-08T03:44:04.446Z,101753.22
2023-05-08T03:49:09.794Z,101753.00
2023-05-08T03:54:13.888Z,101755.59
2023-05-08T03:59:22.482Z,101754.94
2023-05-08T04:04:31.432Z,101756.53
2023-05-08T04:09:40.224Z,101734.56
2023-05-08T04:14:48.652Z,101764.47
2023-05-08T04:19:59.702Z,101757.34
2023-05-08T04:25:06.738Z,101762.88
2023-05-08T04:30:10.991Z,101766.53
2023-05-08T04:35:15.289Z,101764.59
2023-05-08T04:40:20.439Z,101724.97
2023-05-08T04:45:23.568Z,101696.63
2023-05-08T04:50:27.096Z,101764.06
2023-05-08T04:55:31.124Z,101774.50
2023-05-08T05:00:35.151Z,101779.72
2023-05-08T05:05:38.931Z,101790.31
2023-05-08T05:10:44.171Z,101786.69
2023-05-08T05:15:47.234Z,101781.44
2023-05-08T05:20:51.243Z,101784.44
2023-05-08T05:25:55.754Z,101777.16
2023-05-08T05:30:58.870Z,101797.56
2023-05-08T05:36:01.567Z,101786.97
2023-05-08T05:41:05.594Z,101786.72
2023-05-08T05:46:09.705Z,101786.47
2023-05-08T05:51:14.152Z,101781.63
2023-05-08T05:56:18.207Z,101788.63
2023-05-08T06:01:20.916Z,101799.34
2023-05-08T06:06:24.795Z,101806.69
2023-05-08T06:11:28.858Z,101814.31
2023-05-08T06:16:32.144Z,101817.72
2023-05-08T06:21:35.591Z,101825.75
2023-05-08T06:26:39.485Z,101832.50
2023-05-08T06:31:42.022Z,101834.06
2023-05-08T06:36:44.567Z,101844.41
2023-05-08T06:41:49.547Z,101838.19
2023-05-08T06:47:00.536Z,101833.56
2023-05-08T06:52:03.121Z,101837.13
2023-05-08T06:57:08.565Z,101842.22
2023-05-08T07:02:11.527Z,101828.03
2023-05-08T07:07:15.156Z,101838.56
2023-05-08T07:12:19.104Z,101823.97
2023-05-08T07:17:21.787Z,101845.44
2023-05-08T07:22:24.392Z,101855.19
2023-05-08T07:27:28.525Z,101852.03
2023-05-08T07:32:31.567Z,101855.56
2023-05-08T07:37:34.257Z,101853.84
2023-05-08T07:42:42.343Z,101795.38
2023-05-08T07:47:52.332Z,101847.84
2023-05-08T07:52:54.972Z,101851.53
2023-05-08T07:57:59.186Z,101855.41
2023-05-08T08:03:02.311Z,101849.13
2023-05-08T08:08:05.430Z,101843.53
2023-05-08T08:13:09.342Z,101853.97
2023-05-08T08:18:12.937Z,101843.88
2023-05-08T08:23:15.573Z,101849.16
2023-05-08T08:28:19.619Z,101845.34
2023-05-08T08:33:22.248Z,101848.84
2023-05-08T08:38:25.157Z,101848.16
2023-05-08T08:43:30.028Z,101844.94
2023-05-08T08:48:32.874Z,101844.75
2023-05-08T08:53:43.670Z,101851.47
2023-05-08T08:58:55.271Z,101843.06
2023-05-08T09:03:59.358Z,101842.34
2023-05-08T09:09:02.735Z,101851.88
2023-05-08T09:14:07.058Z,101853.16
2023-05-08T09:19:10.470Z,101858.38
2023-05-08T09:24:13.766Z,101864.56
2023-05-08T09:29:19.802Z,101837.09
2023-05-08T09:34:28.277Z,101855.91
2023-05-08T09:39:31.275Z,101855.97
2023-05-08T09:44:46.846Z,101839.28
2023-05-08T09:49:59.717Z,101841.34
2023-05-08T09:55:04.616Z,101850.59
2023-05-08T10:00:10.477Z,101826.03
2023-05-08T10:05:25.283Z,101839.00
2023-05-08T10:10:30.591Z,101838.41
2023-05-08T10:15:36.627Z,101841.97
2023-05-08T10:20:41.421Z,101844.56
2023-05-08T10:25:47.002Z,101839.19
2023-05-08T10:30:51.557Z,101843.09
2023-05-08T10:35:54.541Z,101836.78
2023-05-08T10:41:01.166Z,101828.38
2023-05-08T10:46:12.319Z,101822.19
2023-05-08T10:51:22.772Z,101819.69
2023-05-08T10:56:28.402Z,101817.59
2023-05-08T11:01:32.450Z,101741.53
2023-05-08T11:06:54.158Z,101817.59
2023-05-08T11:12:21.313Z,101806.31
2023-05-08T11:17:26.385Z,101804.91
2023-05-08T11:22:30.827Z,101809.56
2023-05-08T11:27:38.927Z,101805.34
2023-05-08T11:32:59.541Z,101795.47
2023-05-08T11:38:22.184Z,101787.13
2023-05-08T11:43:26.960Z,101789.97
2023-05-08T11:48:30.998Z,101793.19
2023-05-08T11:53:34.188Z,101764.75
2023-05-08T11:58:37.365Z,101753.13
2023-05-08T12:03:41.394Z,101781.81
2023-05-08T12:08:44.090Z,101783.81
2023-05-08T12:13:51.854Z,101779.81
2023-05-08T12:18:57.797Z,101782.00
2023-05-08T12:24:01.307Z,101792.22
2023-05-08T12:29:07.327Z,101758.00
2023-05-08T12:34:11.454Z,101786.03
2023-05-08T12:39:14.992Z,101776.38
2023-05-08T12:44:19.015Z,101776.81
2023-05-08T12:49:28.582Z,101779.44
2023-05-08T12:54:35.994Z,101770.91
2023-05-08T12:59:38.587Z,101769.03
2023-05-08T13:04:42.770Z,101768.59
2023-05-08T13:09:59.588Z,101764.56
2023-05-08T13:15:04.604Z,101755.84
2023-05-08T13:20:11.236Z,101760.09
2023-05-08T13:25:14.372Z,101745.72
2023-05-08T13:30:17.920Z,101741.41
2023-05-08T13:35:22.707Z,101740.34
2023-05-08T13:40:26.022Z,101736.63
2023-05-08T13:45:28.858Z,101732.44
2023-05-08T13:50:32.858Z,101719.72
2023-05-08T13:55:35.558Z,101720.75
2023-05-08T14:00:38.499Z,101722.28
2023-05-08T14:05:42.463Z,101710.94
2023-05-08T14:10:45.053Z,101711.63
2023-05-08T14:15:47.637Z,101705.50
2023-05-08T14:20:57.310Z,101705.53
2023-05-08T14:26:00.388Z,101710.75
2023-05-08T14:31:02.992Z,101706.31
2023-05-08T14:36:07.622Z,101710.59
2023-05-08T14:41:10.873Z,101711.22
2023-05-08T14:46:13.938Z,101710.34
2023-05-08T14:51:19.187Z,101706.91
2023-05-08T14:56:24.301Z,101708.97
2023-05-08T15:01:27.676Z,101644.13
